createdAt,value
2018-05-06T00:01:31.745Z,98774.64
2018-05-06T00:03:59.258Z,98776.17
2018-05-06T00:06:27.042Z,98777.15
2018-05-06T00:08:54.652Z,98780.75
2018-05-06T00:11:22.254Z,98777.82
2018-05-06T00:13:49.804Z,98785.32
2018-05-06T00:16:17.420Z,98784.50
2018-05-06T00:18:44.922Z,98781.22
2018-05-06T00:21:13.046Z,98782.23
2018-05-06T00:23:40.604Z,98782.75
2018-05-06T00:26:08.144Z,98785.83
2018-05-06T00:28:35.672Z,98782.51
2018-05-06T00:31:03.216Z,98778.61
2018-05-06T00:33:30.792Z,98782.39
2018-05-06T00:35:58.353Z,98788.00
2018-05-06T00:38:25.917Z,98785.42
2018-05-06T00:40:53.455Z,98790.77
2018-05-06T00:43:22.016Z,98791.63
2018-05-06T00:45:49.535Z,98789.95
2018-05-06T00:48:17.068Z,98787.14
2018-05-06T00:50:44.608Z,98789.28
2018-05-06T00:53:12.343Z,98792.36
2018-05-06T00:55:39.860Z,98791.66
2018-05-06T00:58:07.382Z,98791.41
2018-05-06T01:00:34.921Z,98800.73
2018-05-06T01:03:03.095Z,98797.30
2018-05-06T01:05:30.611Z,98796.11
2018-05-06T01:07:58.161Z,98800.56
2018-05-06T01:10:25.725Z,98811.68
2018-05-06T01:12:53.305Z,98805.36
2018-05-06T01:15:20.831Z,98816.12
2018-05-06T01:17:48.396Z,98817.53
2018-05-06T01:20:15.961Z,98811.46
2018-05-06T01:22:43.503Z,98814.72
2018-05-06T01:25:11.018Z,98814.33
2018-05-06T01:27:38.547Z,98819.09
2018-05-06T01:30:06.075Z,98816.02
2018-05-06T01:32:33.784Z,98817.52
2018-05-06T01:35:01.296Z,98819.24
2018-05-06T01:37:28.847Z,98816.69
2018-05-06T01:39:56.429Z,98810.59
2018-05-06T01:42:24.309Z,98814.22
2018-05-06T01:44:51.875Z,98820.16
2018-05-06T01:47:19.445Z,98822.05
2018-05-06T01:49:47.014Z,98819.44
2018-05-06T01:52:14.644Z,98824.88
2018-05-06T01:54:42.193Z,98823.78
2018-05-06T01:57:09.782Z,98826.54
2018-05-06T01:59:37.335Z,98832.54
2018-05-06T02:02:04.972Z,98837.45
2018-05-06T02:04:32.529Z,98830.55
2018-05-06T02:07:00.107Z,98830.22
2018-05-06T02:09:27.606Z,98829.88
2018-05-06T02:11:55.168Z,98828.86
2018-05-06T02:14:22.689Z,98824.42
2018-05-06T02:16:50.236Z,98830.16
2018-05-06T02:19:17.865Z,98834.13
2018-05-06T02:21:45.399Z,98831.71
2018-05-06T02:24:12.923Z,98833.59
2018-05-06T02:26:40.987Z,98832.47
2018-05-06T02:29:08.519Z,98835.71
2018-05-06T02:31:36.074Z,98835.41
2018-05-06T02:34:03.583Z,98842.94
2018-05-06T02:36:31.135Z,98851.53
2018-05-06T02:38:58.689Z,98853.08
2018-05-06T02:41:26.200Z,98851.45
2018-05-06T02:43:53.986Z,98851.05
2018-05-06T02:46:21.702Z,98852.52
2018-05-06T02:48:49.251Z,98850.36
2018-05-06T02:51:16.788Z,98846.45
2018-05-06T02:53:44.323Z,98853.66
2018-05-06T02:56:12.898Z,98848.48
2018-05-06T02:58:40.428Z,98844.08
2018-05-06T03:01:07.958Z,98843.77
2018-05-06T03:03:35.580Z,98839.94
2018-05-06T03:06:03.286Z,98843.53
2018-05-06T03:08:30.830Z,98842.30
2018-05-06T03:10:58.498Z,98848.52
2018-05-06T03:13:26.075Z,98850.85
2018-05-06T03:15:53.609Z,98848.58
2018-05-06T03:18:21.132Z,98852.86
2018-05-06T03:20:48.695Z,98851.56
2018-05-06T03:23:16.265Z,98845.34
2018-05-06T03:25:43.796Z,98852.09
2018-05-06T03:28:11.408Z,98852.58
2018-05-06T03:30:38.986Z,98858.67
2018-05-06T03:33:06.512Z,98858.36
2018-05-06T03:35:34.065Z,98866.73
2018-05-06T03:38:01.582Z,98866.50
2018-05-06T03:40:31.174Z,98865.70
2018-05-06T03:42:58.690Z,98862.27
2018-05-06T03:45:26.270Z,98873.02
2018-05-06T03:47:54.646Z,98873.91
2018-05-06T03:50:22.181Z,98866.33
2018-05-06T03:52:49.681Z,98868.11
2018-05-06T03:55:17.205Z,98871.11
2018-05-06T04:00:51.877Z,98877.41
2018-05-06T04:03:19.588Z,98872.63
2018-05-06T04:05:48.059Z,98869.52
2018-05-06T04:08:15.589Z,98866.25
2018-05-06T04:10:43.126Z,98869.93
2018-05-06T04:13:10.686Z,98868.58
2018-05-06T04:15:38.221Z,98867.74
2018-05-06T04:18:05.887Z,98869.96
2018-05-06T04:20:33.463Z,98874.82
2018-05-06T04:23:00.966Z,98878.91
2018-05-06T04:25:28.498Z,98874.88
2018-05-06T04:27:56.314Z,98877.44
2018-05-06T04:30:23.891Z,98875.20
2018-05-06T04:32:51.405Z,98873.04
2018-05-06T04:35:18.944Z,98871.98
2018-05-06T04:37:46.722Z,98884.41
2018-05-06T04:40:14.270Z,98875.00
2018-05-06T04:42:41.794Z,98876.72
2018-05-06T04:45:09.297Z,98879.69
2018-05-06T04:47:36.806Z,98874.70
2018-05-06T04:50:04.352Z,98877.98
2018-05-06T04:52:31.987Z,98877.88
2018-05-06T04:54:59.456Z,98883.36
2018-05-06T04:57:27.091Z,98879.70
2018-05-06T04:59:54.726Z,98877.30
2018-05-06T05:02:22.303Z,98884.73
2018-05-06T05:04:50.074Z,98881.55
2018-05-06T05:07:17.727Z,98886.73
2018-05-06T05:09:45.258Z,98888.02
2018-05-06T05:12:13.785Z,98880.75
2018-05-06T05:14:42.393Z,98883.05
2018-05-06T05:17:10.003Z,98886.41
2018-05-06T05:19:37.534Z,98893.17
2018-05-06T05:22:05.088Z,98889.50
2018-05-06T05:24:32.683Z,98893.74
2018-05-06T05:27:00.235Z,98892.55
2018-05-06T05:29:27.819Z,98889.20
2018-05-06T05:31:55.378Z,98890.28
2018-05-06T05:34:23.037Z,98890.38
2018-05-06T05:36:50.565Z,98890.41
2018-05-06T05:39:18.136Z,98888.55
2018-05-06T05:41:45.695Z,98886.97
2018-05-06T05:44:13.381Z,98885.82
2018-05-06T05:46:40.929Z,98893.81
2018-05-06T05:49:08.763Z,98891.33
2018-05-06T05:51:36.274Z,98891.48
2018-05-06T05:54:04.129Z,98890.53
2018-05-06T05:56:31.685Z,98896.63
2018-05-06T05:58:59.218Z,98906.95
2018-05-06T06:01:27.219Z,98902.16
2018-05-06T06:03:54.767Z,98899.90
2018-05-06T06:06:22.303Z,98897.14
2018-05-06T06:08:49.834Z,98895.02
2018-05-06T06:11:17.444Z,98887.69
2018-05-06T06:13:44.984Z,98890.33
2018-05-06T06:16:12.523Z,98891.16
2018-05-06T06:18:40.224Z,98890.66
2018-05-06T06:21:07.737Z,98892.80
2018-05-06T06:23:35.262Z,98891.22
2018-05-06T06:26:02.848Z,98885.52
2018-05-06T06:28:30.382Z,98888.77
2018-05-06T06:30:57.990Z,98886.66
2018-05-06T06:33:25.504Z,98888.47
2018-05-06T06:35:53.053Z,98892.20
2018-05-06T06:38:20.656Z,98890.51
2018-05-06T06:40:48.845Z,98892.33
2018-05-06T06:43:16.397Z,98885.50
2018-05-06T06:45:44.108Z,98882.88
2018-05-06T06:48:11.672Z,98887.27
2018-05-06T06:50:39.318Z,98892.41
2018-05-06T06:53:06.992Z,98888.08
2018-05-06T06:55:34.848Z,98890.75
2018-05-06T06:58:03.961Z,98889.75
2018-05-06T07:06:29.159Z,98883.09
2018-05-06T07:08:56.684Z,98882.94
2018-05-06T07:11:24.266Z,98885.47
2018-05-06T07:13:51.839Z,98892.16
2018-05-06T07:16:19.462Z,98889.05
2018-05-06T07:18:47.003Z,98881.99
2018-05-06T07:21:24.223Z,98882.66
2018-05-06T07:23:52.323Z,98873.77
2018-05-06T07:26:19.880Z,98882.72
2018-05-06T07:28:47.541Z,98881.18
2018-05-06T07:31:15.264Z,98879.72
2018-05-06T07:33:42.897Z,98872.44
2018-05-06T07:36:11.286Z,98876.40
2018-05-06T07:38:38.821Z,98874.36
2018-05-06T07:41:06.362Z,98864.22
2018-05-06T07:43:33.877Z,98866.67
2018-05-06T07:46:01.466Z,98866.98
2018-05-06T07:48:29.038Z,98868.47
2018-05-06T07:50:56.606Z,98862.89
2018-05-06T07:53:24.147Z,98861.63
2018-05-06T07:55:52.095Z,98860.20
2018-05-06T07:58:19.614Z,98861.72
2018-05-06T08:00:47.148Z,98850.12
2018-05-06T08:03:14.680Z,98855.82
2018-05-06T08:05:42.229Z,98849.08
2018-05-06T08:08:09.751Z,98851.95
2018-05-06T08:10:37.303Z,98856.87
2018-05-06T08:13:04.848Z,98851.94
2018-05-06T08:15:32.456Z,98855.03
2018-05-06T08:18:00.061Z,98859.52
2018-05-06T08:20:27.587Z,98850.28
2018-05-06T08:22:55.166Z,98856.86
2018-05-06T08:25:22.674Z,98851.14
2018-05-06T08:27:50.226Z,98856.18
2018-05-06T08:30:17.777Z,98850.61
2018-05-06T08:32:45.301Z,98848.73
2018-05-06T08:35:12.834Z,98843.03
2018-05-06T08:37:40.545Z,98845.12
2018-05-06T08:40:08.154Z,98839.39
2018-05-06T08:42:35.828Z,98844.77
2018-05-06T08:45:03.535Z,98835.65
2018-05-06T08:47:31.047Z,98833.27
2018-05-06T08:49:58.587Z,98830.81
2018-05-06T08:52:26.125Z,98835.52
2018-05-06T08:54:53.706Z,98833.22
2018-05-06T08:57:21.248Z,98830.44
2018-05-06T08:59:48.994Z,98836.28
2018-05-06T09:02:16.520Z,98835.77
2018-05-06T09:04:44.072Z,98834.30
2018-05-06T09:07:11.583Z,98832.50
2018-05-06T09:09:39.093Z,98841.01
2018-05-06T09:12:06.752Z,98836.95
2018-05-06T09:14:34.270Z,98833.43
2018-05-06T09:17:01.814Z,98838.91
2018-05-06T09:19:29.598Z,98831.40
2018-05-06T09:21:57.182Z,98838.29
2018-05-06T09:24:24.682Z,98829.45
2018-05-06T09:26:52.201Z,98821.31
2018-05-06T09:29:19.735Z,98819.26
2018-05-06T09:31:47.348Z,98821.23
2018-05-06T09:34:14.915Z,98818.45
2018-05-06T09:36:42.468Z,98818.81
2018-05-06T09:39:10.127Z,98817.36
2018-05-06T09:41:37.667Z,98814.84
2018-05-06T09:44:05.246Z,98811.14
2018-05-06T09:46:32.760Z,98805.05
2018-05-06T09:49:00.270Z,98803.84
2018-05-06T09:51:27.807Z,98803.48
2018-05-06T09:53:55.430Z,98795.56
2018-05-06T09:56:22.882Z,98799.56
2018-05-06T09:58:50.428Z,98794.80
2018-05-06T10:01:17.974Z,98796.73
2018-05-06T10:03:45.505Z,98793.61
2018-05-06T10:06:13.029Z,98797.68
2018-05-06T10:08:40.619Z,98786.88
2018-05-06T10:11:09.186Z,98791.61
2018-05-06T10:13:36.721Z,98789.96
2018-05-06T10:16:04.258Z,98787.41
2018-05-06T10:18:32.189Z,98777.71
2018-05-06T10:20:59.679Z,98783.64
2018-05-06T10:23:27.789Z,98785.53
2018-05-06T10:25:55.325Z,98775.56
2018-05-06T10:28:23.065Z,98769.16
2018-05-06T10:30:50.745Z,98778.75
2018-05-06T10:33:18.272Z,98769.66
2018-05-06T10:35:46.028Z,98771.97
2018-05-06T10:38:13.577Z,98760.50
2018-05-06T10:40:41.430Z,98758.36
2018-05-06T10:43:08.952Z,98756.87
2018-05-06T10:45:44.562Z,98752.64
2018-05-06T10:51:56.191Z,98751.92
2018-05-06T10:54:49.227Z,98744.73
2018-05-06T11:00:07.398Z,98739.61
2018-05-06T11:02:42.772Z,98734.12
2018-05-06T11:05:32.564Z,98736.00
2018-05-06T11:08:11.617Z,98730.22
2018-05-06T11:19:15.627Z,98724.56
2018-05-06T11:21:57.524Z,98723.49
2018-05-06T11:30:16.190Z,98713.70
2018-05-06T11:33:05.414Z,98703.20
2018-05-06T11:41:04.262Z,98698.61
2018-05-06T11:43:31.800Z,98704.77
2018-05-06T11:45:59.380Z,98698.33
2018-05-06T11:48:26.893Z,98695.98
2018-05-06T11:50:54.404Z,98695.13
2018-05-06T11:53:21.929Z,98691.13
2018-05-06T11:55:49.446Z,98690.14
2018-05-06T11:58:16.973Z,98688.91
2018-05-06T12:00:44.527Z,98679.26
2018-05-06T12:03:12.071Z,98680.70
2018-05-06T12:05:39.616Z,98676.58
2018-05-06T12:08:07.243Z,98676.72
2018-05-06T12:10:34.778Z,98672.16
2018-05-06T12:13:02.320Z,98660.71
2018-05-06T12:15:29.917Z,98666.22
2018-05-06T12:17:57.550Z,98662.70
2018-05-06T12:20:25.132Z,98659.58
2018-05-06T12:22:52.707Z,98658.63
2018-05-06T12:25:20.232Z,98662.38
2018-05-06T12:27:47.783Z,98653.10
2018-05-06T12:30:15.346Z,98655.61
2018-05-06T12:32:42.956Z,98643.65
2018-05-06T12:35:10.481Z,98642.50
2018-05-06T12:37:38.006Z,98640.08
2018-05-06T12:40:05.587Z,98643.98
2018-05-06T12:42:33.143Z,98643.09
2018-05-06T12:45:00.677Z,98644.05
2018-05-06T12:47:28.281Z,98634.18
2018-05-06T12:49:55.807Z,98624.70
2018-05-06T12:52:23.353Z,98635.74
2018-05-06T12:54:50.880Z,98634.14
2018-05-06T12:57:18.514Z,98633.56
2018-05-06T12:59:46.081Z,98624.05
2018-05-06T13:02:13.616Z,98624.74
2018-05-06T13:04:41.207Z,98621.65
2018-05-06T13:07:08.934Z,98615.13
2018-05-06T13:09:36.510Z,98610.89
2018-05-06T13:12:04.148Z,98608.01
2018-05-06T13:14:32.612Z,98609.64
2018-05-06T13:17:00.234Z,98615.13
2018-05-06T13:19:27.792Z,98609.84
2018-05-06T13:21:56.261Z,98614.19
2018-05-06T13:24:24.448Z,98604.61
2018-05-06T13:26:52.097Z,98604.80
2018-05-06T13:29:19.633Z,98603.17
2018-05-06T13:31:47.184Z,98604.58
2018-05-06T13:34:14.732Z,98603.95
2018-05-06T13:36:42.521Z,98589.70
2018-05-06T13:39:10.177Z,98595.45
2018-05-06T13:41:38.552Z,98589.42
2018-05-06T13:44:06.161Z,98589.54
2018-05-06T13:46:33.709Z,98592.10
2018-05-06T13:49:01.391Z,98586.86
2018-05-06T13:51:28.920Z,98583.52
2018-05-06T13:53:56.433Z,98584.73
2018-05-06T13:56:23.978Z,98587.83
2018-05-06T13:58:51.502Z,98576.23
2018-05-06T14:01:19.040Z,98590.10
2018-05-06T14:03:46.564Z,98579.23
2018-05-06T14:06:14.360Z,98580.58
2018-05-06T14:08:41.886Z,98572.79
2018-05-06T14:11:09.487Z,98562.26
2018-05-06T14:13:37.012Z,98566.11
2018-05-06T14:16:04.554Z,98563.99
2018-05-06T14:18:32.093Z,98559.19
2018-05-06T14:20:59.628Z,98571.81
2018-05-06T14:23:27.157Z,98570.38
2018-05-06T14:25:54.699Z,98555.44
2018-05-06T14:28:22.850Z,98556.36
2018-05-06T14:30:50.361Z,98560.73
2018-05-06T14:33:17.895Z,98566.34
2018-05-06T14:35:45.679Z,98562.52
2018-05-06T14:38:13.215Z,98564.58
2018-05-06T14:40:40.718Z,98550.57
2018-05-06T14:43:08.235Z,98550.17
2018-05-06T14:45:35.786Z,98547.86
2018-05-06T14:48:13.343Z,98550.67
2018-05-06T14:50:40.926Z,98543.11
2018-05-06T14:53:08.441Z,98541.81
2018-05-06T14:55:36.018Z,98540.14
2018-05-06T14:58:03.762Z,98542.27
2018-05-06T15:00:31.272Z,98538.27
2018-05-06T15:02:58.827Z,98537.70
2018-05-06T15:05:26.756Z,98535.36
2018-05-06T15:07:54.310Z,98537.48
2018-05-06T15:10:21.976Z,98529.44
2018-05-06T15:12:49.587Z,98531.64
2018-05-06T15:15:17.123Z,98539.84
2018-05-06T15:17:44.657Z,98529.40
2018-05-06T15:20:12.219Z,98530.25
2018-05-06T15:22:39.747Z,98521.51
2018-05-06T15:25:07.336Z,98517.90
2018-05-06T15:27:34.832Z,98516.80
2018-05-06T15:30:02.418Z,98510.16
2018-05-06T15:32:29.966Z,98514.39
2018-05-06T15:34:57.455Z,98509.36
2018-05-06T15:37:25.001Z,98505.42
2018-05-06T15:39:52.521Z,98504.74
2018-05-06T15:42:20.069Z,98508.94
2018-05-06T15:44:47.618Z,98504.43
2018-05-06T15:47:15.123Z,98503.42
2018-05-06T15:49:42.667Z,98501.16
2018-05-06T15:52:10.328Z,98498.02
2018-05-06T15:54:38.331Z,98496.12
2018-05-06T15:57:05.919Z,98504.64
2018-05-06T15:59:33.648Z,98497.38
2018-05-06T16:02:06.991Z,98497.81
2018-05-06T16:04:34.585Z,98492.87
2018-05-06T16:07:02.111Z,98492.30
2018-05-06T16:09:30.353Z,98487.17
2018-05-06T16:11:57.964Z,98488.75
2018-05-06T16:14:25.540Z,98494.73
2018-05-06T16:16:53.089Z,98495.83
2018-05-06T16:19:20.719Z,98492.37
2018-05-06T16:21:48.303Z,98494.95
2018-05-06T16:24:15.893Z,98489.88
2018-05-06T16:26:43.533Z,98493.98
2018-05-06T16:29:11.046Z,98490.89
2018-05-06T16:31:38.773Z,98486.57
2018-05-06T16:34:06.326Z,98494.06
2018-05-06T16:36:33.858Z,98497.48
2018-05-06T16:39:01.492Z,98489.90
2018-05-06T16:41:29.050Z,98492.61
2018-05-06T16:43:56.572Z,98493.63
2018-05-06T16:46:24.111Z,98489.38
2018-05-06T16:48:51.646Z,98491.19
2018-05-06T16:51:19.193Z,98489.17
2018-05-06T16:53:46.886Z,98492.92
2018-05-06T16:56:14.487Z,98488.08
2018-05-06T16:58:42.031Z,98497.05
2018-05-06T17:01:09.599Z,98487.39
2018-05-06T17:03:38.225Z,98490.55
2018-05-06T17:06:05.778Z,98496.58
2018-05-06T17:08:33.331Z,98492.91
2018-05-06T17:11:00.920Z,98495.78
2018-05-06T17:13:28.432Z,98494.58
2018-05-06T17:15:55.960Z,98495.54
2018-05-06T17:18:23.490Z,98493.80
2018-05-06T17:20:51.012Z,98495.39
2018-05-06T17:23:18.684Z,98498.84
2018-05-06T17:25:46.216Z,98493.67
2018-05-06T17:28:13.838Z,98500.28
2018-05-06T17:30:41.374Z,98494.12
2018-05-06T17:33:08.921Z,98503.67
2018-05-06T17:35:36.492Z,98506.57
2018-05-06T17:38:04.028Z,98505.30
2018-05-06T17:40:31.704Z,98511.14
2018-05-06T17:42:59.225Z,98517.67
2018-05-06T17:45:26.719Z,98515.30
2018-05-06T17:47:54.309Z,98518.22
2018-05-06T17:50:21.827Z,98520.97
2018-05-06T17:52:49.513Z,98526.62
2018-05-06T17:55:17.055Z,98528.19
2018-05-06T17:57:50.519Z,98531.31
2018-05-06T18:00:18.060Z,98529.26
2018-05-06T18:02:45.578Z,98531.66
2018-05-06T18:05:13.285Z,98527.05
2018-05-06T18:07:40.923Z,98528.94
2018-05-06T18:10:08.469Z,98535.84
2018-05-06T18:12:36.048Z,98527.56
2018-05-06T18:15:03.573Z,98528.95
2018-05-06T18:17:31.134Z,98528.28
2018-05-06T18:19:58.670Z,98535.55
2018-05-06T18:22:26.228Z,98531.55
2018-05-06T18:24:54.314Z,98531.94
2018-05-06T18:27:21.894Z,98538.26
2018-05-06T18:29:49.451Z,98531.08
2018-05-06T18:32:17.087Z,98534.29
2018-05-06T18:34:44.786Z,98538.86
2018-05-06T18:37:12.402Z,98534.10
2018-05-06T18:39:39.932Z,98543.95
2018-05-06T18:42:07.571Z,98549.80
2018-05-06T18:44:35.187Z,98547.64
2018-05-06T18:47:02.877Z,98545.53
2018-05-06T18:49:30.463Z,98551.33
2018-05-06T18:51:58.029Z,98550.24
2018-05-06T18:54:25.560Z,98551.97
2018-05-06T18:56:53.105Z,98553.23
2018-05-06T18:59:20.676Z,98554.89
2018-05-06T19:01:48.301Z,98561.37
2018-05-06T19:04:15.927Z,98559.23
2018-05-06T19:06:43.475Z,98560.87
2018-05-06T19:09:11.050Z,98565.30
2018-05-06T19:11:38.637Z,98565.02
2018-05-06T19:14:06.353Z,98567.75
2018-05-06T19:16:33.899Z,98561.27
2018-05-06T19:19:01.458Z,98567.16
2018-05-06T19:21:29.235Z,98568.67
2018-05-06T19:23:56.804Z,98575.98
2018-05-06T19:26:24.392Z,98572.34
2018-05-06T19:28:51.938Z,98571.73
2018-05-06T19:31:19.493Z,98573.79
2018-05-06T19:33:47.040Z,98572.87
2018-05-06T19:36:14.603Z,98568.96
2018-05-06T19:38:42.535Z,98581.86
2018-05-06T19:41:10.337Z,98582.70
2018-05-06T19:43:38.008Z,98579.62
2018-05-06T19:46:05.549Z,98574.16
2018-05-06T19:48:33.261Z,98575.08
2018-05-06T19:51:00.976Z,98582.73
2018-05-06T19:53:28.726Z,98584.98
2018-05-06T19:55:56.260Z,98587.23
2018-05-06T19:58:23.868Z,98585.00
2018-05-06T20:00:51.540Z,98586.47
2018-05-06T20:03:19.173Z,98592.67
2018-05-06T20:05:46.933Z,98598.28
2018-05-06T20:08:14.480Z,98599.72
2018-05-06T20:10:42.268Z,98598.22
2018-05-06T20:13:09.876Z,98600.41
2018-05-06T20:15:37.545Z,98602.66
2018-05-06T20:18:05.057Z,98603.44
2018-05-06T20:20:32.815Z,98600.67
2018-05-06T20:23:00.453Z,98606.73
2018-05-06T20:25:28.928Z,98602.16
2018-05-06T20:27:56.449Z,98601.08
2018-05-06T20:30:24.008Z,98601.45
2018-05-06T20:32:51.681Z,98603.42
2018-05-06T20:35:19.351Z,98599.87
2018-05-06T20:37:46.911Z,98604.22
2018-05-06T20:40:14.426Z,98603.53
2018-05-06T20:42:42.000Z,98600.70
2018-05-06T20:45:09.646Z,98603.88
2018-05-06T20:47:37.179Z,98606.36
2018-05-06T20:50:04.809Z,98596.94
2018-05-06T20:52:32.428Z,98597.94
2018-05-06T20:54:59.935Z,98600.98
2018-05-06T20:57:27.551Z,98602.64
2018-05-06T20:59:55.283Z,98596.44
2018-05-06T21:02:22.825Z,98596.48
2018-05-06T21:04:50.414Z,98595.27
2018-05-06T21:07:18.013Z,98594.92
2018-05-06T21:09:45.650Z,98604.72
2018-05-06T21:12:13.403Z,98598.95
2018-05-06T21:14:41.064Z,98600.28
2018-05-06T21:17:08.582Z,98595.48
2018-05-06T21:19:36.089Z,98593.16
2018-05-06T21:22:03.675Z,98600.20
2018-05-06T21:24:31.200Z,98593.20
2018-05-06T21:26:58.737Z,98595.95
2018-05-06T21:29:26.377Z,98597.21
2018-05-06T21:31:53.947Z,98601.20
2018-05-06T21:34:21.517Z,98596.95
2018-05-06T21:36:49.201Z,98599.96
2018-05-06T21:39:16.675Z,98601.63
2018-05-06T21:41:44.169Z,98601.25
2018-05-06T21:44:11.718Z,98601.28
2018-05-06T21:46:39.234Z,98603.42
2018-05-06T21:49:06.679Z,98599.16
2018-05-06T21:51:34.210Z,98598.83
2018-05-06T21:54:01.925Z,98603.59
2018-05-06T21:56:29.397Z,98604.77
2018-05-06T21:58:56.917Z,98607.94
2018-05-06T22:01:24.475Z,98607.89
2018-05-06T22:03:51.953Z,98610.68
2018-05-06T22:06:19.440Z,98610.61
2018-05-06T22:08:46.930Z,98612.65
2018-05-06T22:11:14.427Z,98617.24
2018-05-06T22:13:42.156Z,98619.36
2018-05-06T22:16:09.646Z,98619.54
2018-05-06T22:18:37.160Z,98612.73
2018-05-06T22:21:04.657Z,98614.28
2018-05-06T22:23:32.163Z,98614.97
2018-05-06T22:25:59.676Z,98612.78
2018-05-06T22:28:27.197Z,98612.44
2018-05-06T22:30:54.666Z,98607.77
2018-05-06T22:33:22.236Z,98610.04
2018-05-06T22:35:49.796Z,98613.73
2018-05-06T22:38:17.277Z,98609.44
2018-05-06T22:40:44.768Z,98607.42
2018-05-06T22:43:12.304Z,98609.66
2018-05-06T22:45:39.773Z,98608.45
2018-05-06T22:48:07.276Z,98604.63
2018-05-06T22:50:34.740Z,98604.84
2018-05-06T22:53:02.257Z,98605.19
2018-05-06T22:55:29.766Z,98611.68
2018-05-06T22:57:57.246Z,98614.85
2018-05-06T23:00:24.742Z,98610.64
2018-05-06T23:02:52.260Z,98606.66
2018-05-06T23:05:19.778Z,98607.48
2018-05-06T23:07:47.383Z,98610.13
2018-05-06T23:10:14.875Z,98606.15
2018-05-06T23:12:42.717Z,98604.21
2018-05-06T23:15:10.580Z,98599.77
2018-05-06T23:17:38.580Z,98604.17
2018-05-06T23:20:06.290Z,98603.10
2018-05-06T23:22:33.776Z,98599.47
2018-05-06T23:25:01.333Z,98591.72
2018-05-06T23:27:28.872Z,98593.20
2018-05-06T23:29:56.572Z,98589.50
2018-05-06T23:32:24.172Z,98590.44
2018-05-06T23:34:51.659Z,98578.58
2018-05-06T23:37:19.155Z,98580.88
2018-05-06T23:39:46.671Z,98576.52
2018-05-06T23:42:14.151Z,98577.10
2018-05-06T23:44:42.685Z,98574.53
2018-05-06T23:47:10.189Z,98581.06
2018-05-06T23:49:37.785Z,98582.63
2018-05-06T23:52:05.312Z,98584.27
2018-05-06T23:54:32.935Z,98586.76
2018-05-06T23:57:00.552Z,98588.27
2018-05-06T23:59:28.081Z,98584.02
